createdAt,value
2023-01-07T00:02:13.301Z,2.60
2023-01-07T00:04:40.906Z,2.17
2023-01-07T00:07:09.953Z,2.10
2023-01-07T00:09:39.417Z,2.30
2023-01-07T00:12:07.765Z,2.73
2023-01-07T00:14:35.394Z,2.30
2023-01-07T00:17:03.531Z,2.63
2023-01-07T00:19:31.148Z,2.67
2023-01-07T00:21:59.286Z,2.50
2023-01-07T00:24:26.984Z,2.50
2023-01-07T00:26:54.565Z,2.53
2023-01-07T00:29:22.174Z,2.93
2023-01-07T00:31:50.730Z,2.70
2023-01-07T00:34:23.518Z,2.00
2023-01-07T00:36:51.334Z,2.20
2023-01-07T00:39:21.488Z,1.77
2023-01-07T00:42:08.360Z,2.10
2023-01-07T00:44:37.956Z,2.10
2023-01-07T00:47:06.583Z,2.70
2023-01-07T00:49:34.234Z,2.10
2023-01-07T00:52:01.931Z,2.17
2023-01-07T00:54:29.714Z,2.30
2023-01-07T00:56:57.360Z,2.40
2023-01-07T00:59:25.063Z,1.90
2023-01-07T01:01:52.692Z,1.50
2023-01-07T01:04:23.956Z,2.07
2023-01-07T01:06:52.991Z,2.70
2023-01-07T01:09:23.139Z,1.60
2023-01-07T01:11:52.694Z,3.90
2023-01-07T01:14:22.022Z,2.50
2023-01-07T01:16:49.983Z,2.30
2023-01-07T01:19:17.735Z,1.70
2023-01-07T01:21:45.685Z,2.00
2023-01-07T01:24:13.706Z,2.17
2023-01-07T01:26:41.312Z,1.30
2023-01-07T01:29:08.871Z,1.53
2023-01-07T01:31:36.609Z,1.20
2023-01-07T01:34:05.805Z,1.30
2023-01-07T01:36:34.971Z,1.20
2023-01-07T01:39:02.783Z,1.17
2023-01-07T01:41:33.782Z,1.03
2023-01-07T01:44:23.057Z,1.40
2023-01-07T01:46:50.937Z,1.30
2023-01-07T01:49:36.538Z,1.30
2023-01-07T01:52:18.258Z,1.80
2023-01-07T01:54:59.642Z,1.83
2023-01-07T01:57:33.325Z,1.60
2023-01-07T02:00:01.905Z,1.50
2023-01-07T02:02:44.426Z,1.40
2023-01-07T02:05:12.789Z,1.40
2023-01-07T02:07:40.369Z,1.37
2023-01-07T02:10:25.479Z,1.43
2023-01-07T02:13:46.137Z,1.70
2023-01-07T02:17:02.084Z,1.40
2023-01-07T02:20:54.909Z,1.20
2023-01-07T02:24:06.759Z,1.30
2023-01-07T02:27:26.029Z,1.60
2023-01-07T02:30:56.003Z,1.20
2023-01-07T02:34:20.955Z,2.47
2023-01-07T02:37:35.537Z,1.80
2023-01-07T02:41:05.242Z,2.17
2023-01-07T02:44:04.110Z,1.73
2023-01-07T02:47:02.446Z,1.90
2023-01-07T02:49:30.594Z,1.57
2023-01-07T02:52:31.234Z,1.57
2023-01-07T02:55:35.568Z,1.37
2023-01-07T02:58:36.330Z,1.30
2023-01-07T03:01:29.666Z,1.53
2023-01-07T03:04:38.620Z,1.70
2023-01-07T03:07:55.169Z,1.20
2023-01-07T03:10:50.787Z,1.67
2023-01-07T03:13:41.425Z,1.60
2023-01-07T03:16:49.575Z,1.83
2023-01-07T03:19:32.011Z,1.70
2023-01-07T03:22:07.857Z,1.60
2023-01-07T03:24:36.396Z,1.90
2023-01-07T03:27:09.540Z,2.00
2023-01-07T03:29:37.491Z,1.60
2023-01-07T03:32:44.572Z,2.67
2023-01-07T03:35:13.446Z,2.27
2023-01-07T03:37:43.580Z,1.70
2023-01-07T03:40:13.616Z,2.23
2023-01-07T03:42:49.050Z,1.47
2023-01-07T03:45:28.066Z,1.30
2023-01-07T03:47:58.896Z,1.33
2023-01-07T03:50:34.409Z,1.70
2023-01-07T03:53:02.473Z,1.83
2023-01-07T03:55:31.459Z,1.70
2023-01-07T03:57:59.774Z,1.60
2023-01-07T04:00:27.919Z,1.87
2023-01-07T04:03:06.470Z,2.10
2023-01-07T04:05:38.933Z,1.73
2023-01-07T04:08:09.519Z,2.30
2023-01-07T04:10:39.546Z,1.77
2023-01-07T04:13:07.296Z,1.80
2023-01-07T04:15:36.064Z,2.13
2023-01-07T04:18:04.627Z,2.40
2023-01-07T04:20:32.423Z,2.23
2023-01-07T04:23:00.732Z,2.17
2023-01-07T04:25:31.308Z,2.40
2023-01-07T04:28:00.693Z,1.90
2023-01-07T04:30:28.302Z,1.90
2023-01-07T04:32:56.126Z,1.93
2023-01-07T04:35:24.042Z,2.00
2023-01-07T04:37:52.025Z,2.10
2023-01-07T04:40:19.616Z,1.80
2023-01-07T04:42:48.547Z,2.47
2023-01-07T04:45:17.438Z,2.27
2023-01-07T04:47:45.297Z,2.53
2023-01-07T04:50:14.327Z,2.03
2023-01-07T04:52:43.053Z,2.03
2023-01-07T04:55:11.165Z,2.03
2023-01-07T04:57:39.357Z,2.23
2023-01-07T05:00:10.542Z,1.73
2023-01-07T05:02:39.174Z,1.77
2023-01-07T05:05:08.821Z,1.70
2023-01-07T05:07:37.447Z,2.00
2023-01-07T05:10:07.657Z,2.00
2023-01-07T05:12:37.858Z,2.23
2023-01-07T05:15:09.715Z,1.77
2023-01-07T05:17:40.749Z,1.47
2023-01-07T05:20:11.772Z,1.60
2023-01-07T05:22:40.363Z,1.73
2023-01-07T05:25:10.080Z,1.63
2023-01-07T05:27:37.800Z,1.77
2023-01-07T05:30:08.077Z,1.63
2023-01-07T05:32:36.011Z,1.90
2023-01-07T05:35:04.112Z,1.87
2023-01-07T05:37:31.832Z,1.63
2023-01-07T05:40:00.174Z,2.20
2023-01-07T05:42:27.855Z,2.27
2023-01-07T05:44:55.500Z,1.90
2023-01-07T05:47:23.065Z,1.70
2023-01-07T05:49:50.888Z,2.13
2023-01-07T05:52:18.400Z,2.87
2023-01-07T05:54:46.066Z,2.60
2023-01-07T05:57:13.652Z,2.93
2023-01-07T05:59:41.292Z,2.27
2023-01-07T06:02:08.915Z,2.70
2023-01-07T06:04:36.617Z,2.23
2023-01-07T06:07:04.213Z,2.20
2023-01-07T06:09:32.159Z,2.40
2023-01-07T06:11:59.733Z,2.40
2023-01-07T06:14:27.331Z,2.60
2023-01-07T06:16:55.013Z,2.77
2023-01-07T06:19:23.097Z,2.83
2023-01-07T06:21:51.040Z,3.17
2023-01-07T06:24:18.631Z,2.93
2023-01-07T06:26:46.807Z,2.50
2023-01-07T06:29:14.499Z,2.30
2023-01-07T06:31:42.126Z,2.77
2023-01-07T06:34:09.985Z,2.40
2023-01-07T06:36:37.585Z,2.80
2023-01-07T06:39:05.319Z,2.37
2023-01-07T06:41:33.669Z,2.10
2023-01-07T06:44:01.239Z,2.53
2023-01-07T06:46:29.069Z,2.40
2023-01-07T06:48:56.814Z,2.00
2023-01-07T06:51:24.440Z,2.90
2023-01-07T06:53:52.067Z,2.70
2023-01-07T06:56:19.688Z,2.10
2023-01-07T06:58:47.338Z,2.10
2023-01-07T07:01:15.224Z,2.13
2023-01-07T07:03:42.917Z,2.60
2023-01-07T07:06:11.228Z,2.07
2023-01-07T07:08:39.223Z,2.33
2023-01-07T07:11:06.970Z,2.70
2023-01-07T07:13:34.655Z,2.63
2023-01-07T07:16:03.353Z,2.90
2023-01-07T07:18:30.995Z,2.10
2023-01-07T07:20:58.827Z,2.00
2023-01-07T07:23:26.478Z,2.20
2023-01-07T07:25:54.091Z,2.87
2023-01-07T07:28:21.749Z,2.10
2023-01-07T07:30:49.404Z,2.40
2023-01-07T07:33:19.508Z,2.40
2023-01-07T07:35:48.759Z,2.37
2023-01-07T07:38:18.538Z,2.53
2023-01-07T07:40:47.744Z,2.40
2023-01-07T07:43:16.236Z,2.20
2023-01-07T07:45:44.629Z,2.07
2023-01-07T07:48:16.958Z,2.37
2023-01-07T07:50:44.703Z,2.37
2023-01-07T07:53:12.348Z,2.20
2023-01-07T07:55:40.547Z,1.87
2023-01-07T07:58:08.220Z,2.13
2023-01-07T08:00:35.932Z,2.20
2023-01-07T08:03:04.867Z,2.47
2023-01-07T08:05:32.667Z,2.33
2023-01-07T08:08:00.469Z,2.30
2023-01-07T08:10:29.541Z,2.23
2023-01-07T08:12:57.148Z,3.03
2023-01-07T08:15:25.156Z,2.20
2023-01-07T08:18:10.071Z,2.60
2023-01-07T08:20:38.517Z,2.20
2023-01-07T08:23:09.080Z,2.27
2023-01-07T08:25:37.252Z,1.77
2023-01-07T08:28:05.959Z,2.27
2023-01-07T08:30:33.881Z,1.60
2023-01-07T08:33:04.584Z,1.60
2023-01-07T08:35:32.514Z,1.67
2023-01-07T08:38:10.548Z,1.43
2023-01-07T08:40:39.084Z,1.70
2023-01-07T08:43:09.222Z,2.13
2023-01-07T08:45:37.138Z,1.23
2023-01-07T08:48:05.996Z,1.37
2023-01-07T08:50:34.864Z,1.30
2023-01-07T08:53:03.171Z,1.67
2023-01-07T08:55:30.772Z,1.30
2023-01-07T08:57:58.443Z,1.47
2023-01-07T09:00:27.116Z,1.23
2023-01-07T09:02:54.905Z,1.17
2023-01-07T09:05:24.609Z,1.57
2023-01-07T09:07:57.192Z,1.57
2023-01-07T09:10:26.233Z,1.50
2023-01-07T09:12:53.854Z,1.73
2023-01-07T09:15:22.192Z,1.37
2023-01-07T09:17:49.887Z,1.87
2023-01-07T09:20:17.648Z,1.40
2023-01-07T09:22:45.279Z,1.23
2023-01-07T09:25:13.457Z,1.37
2023-01-07T09:27:42.487Z,1.10
2023-01-07T09:30:11.423Z,2.03
2023-01-07T09:32:39.449Z,1.47
2023-01-07T09:35:08.306Z,1.30
2023-01-07T09:37:36.516Z,1.30
2023-01-07T09:40:13.374Z,1.30
2023-01-07T09:43:08.867Z,1.27
2023-01-07T09:46:03.161Z,1.60
2023-01-07T09:48:47.185Z,1.67
2023-01-07T09:51:31.791Z,1.40
2023-01-07T09:54:05.530Z,1.60
2023-01-07T09:56:40.661Z,1.47
2023-01-07T09:59:12.724Z,1.23
2023-01-07T10:02:33.289Z,1.57
2023-01-07T10:05:54.321Z,1.10
2023-01-07T10:09:12.831Z,1.30
2023-01-07T10:12:36.688Z,1.60
2023-01-07T10:16:29.629Z,1.40
2023-01-07T10:19:28.860Z,1.40
2023-01-07T10:22:39.054Z,1.30
2023-01-07T10:25:27.536Z,1.23
2023-01-07T10:28:05.779Z,1.10
2023-01-07T10:30:44.960Z,1.53
2023-01-07T10:33:29.640Z,1.40
2023-01-07T10:36:26.158Z,1.83
2023-01-07T10:39:46.706Z,1.30
2023-01-07T10:42:32.300Z,1.00
2023-01-07T10:45:51.106Z,1.20
2023-01-07T10:48:42.498Z,1.60
2023-01-07T10:51:52.606Z,1.00
2023-01-07T10:55:18.711Z,1.57
2023-01-07T10:57:49.203Z,1.60
2023-01-07T11:00:20.505Z,1.80
2023-01-07T11:03:00.026Z,1.43
2023-01-07T11:05:39.130Z,1.20
2023-01-07T11:08:29.141Z,1.10
2023-01-07T11:10:58.825Z,1.30
2023-01-07T11:13:34.078Z,1.70
2023-01-07T11:16:29.630Z,1.30
2023-01-07T11:19:08.769Z,1.47
2023-01-07T11:21:44.982Z,1.60
2023-01-07T11:24:33.905Z,1.70
2023-01-07T11:27:17.396Z,1.43
2023-01-07T11:30:04.609Z,1.57
2023-01-07T11:32:43.273Z,1.87
2023-01-07T11:35:24.169Z,2.00
2023-01-07T11:37:52.322Z,1.37
2023-01-07T11:40:32.781Z,1.67
2023-01-07T11:43:22.234Z,1.40
2023-01-07T11:46:19.185Z,1.80
2023-01-07T11:49:01.034Z,1.73
2023-01-07T11:51:40.825Z,1.73
2023-01-07T11:54:29.494Z,1.90
2023-01-07T11:57:27.323Z,1.50
2023-01-07T12:00:19.750Z,1.80
2023-01-07T12:03:13.509Z,1.80
2023-01-07T12:05:45.267Z,1.60
2023-01-07T12:08:23.994Z,1.80
2023-01-07T12:11:00.137Z,1.93
2023-01-07T12:13:28.756Z,2.20
2023-01-07T12:16:07.449Z,1.83
2023-01-07T12:19:32.193Z,1.73
2023-01-07T12:22:34.658Z,1.83
2023-01-07T12:26:29.399Z,2.40
2023-01-07T12:29:55.322Z,2.33
2023-01-07T12:32:41.917Z,1.70
2023-01-07T12:35:32.407Z,2.20
2023-01-07T12:38:39.888Z,1.93
2023-01-07T12:41:27.353Z,1.97
2023-01-07T12:44:22.940Z,1.70
2023-01-07T12:47:37.726Z,1.87
2023-01-07T12:50:25.792Z,2.10
2023-01-07T12:53:07.735Z,1.87
2023-01-07T12:55:51.044Z,1.90
2023-01-07T12:58:54.791Z,1.80
2023-01-07T13:01:39.035Z,1.60
2023-01-07T13:04:32.228Z,1.40
2023-01-07T13:07:23.185Z,1.47
2023-01-07T13:10:01.653Z,1.47
2023-01-07T13:12:43.273Z,1.93
2023-01-07T13:15:30.777Z,2.23
2023-01-07T13:18:11.970Z,2.57
2023-01-07T13:21:16.134Z,1.90
2023-01-07T13:24:56.513Z,1.90
2023-01-07T13:28:22.497Z,1.37
2023-01-07T13:32:08.024Z,2.30
2023-01-07T13:35:28.588Z,1.50
2023-01-07T13:39:10.233Z,1.83
2023-01-07T13:41:53.500Z,2.37
2023-01-07T13:44:52.595Z,1.40
2023-01-07T13:47:33.872Z,1.70
2023-01-07T13:50:03.829Z,1.73
2023-01-07T13:52:34.846Z,1.80
2023-01-07T13:55:46.149Z,2.13
2023-01-07T13:58:31.998Z,1.60
2023-01-07T14:01:13.409Z,2.40
2023-01-07T14:04:18.931Z,2.07
2023-01-07T14:06:52.703Z,1.67
2023-01-07T14:09:33.003Z,1.90
2023-01-07T14:13:08.533Z,1.77
2023-01-07T14:16:11.541Z,1.60
2023-01-07T14:19:19.578Z,2.00
2023-01-07T14:22:53.537Z,1.60
2023-01-07T14:26:11.742Z,1.70
2023-01-07T14:29:32.236Z,1.50
2023-01-07T14:32:38.636Z,1.67
2023-01-07T14:35:12.231Z,1.50
2023-01-07T14:37:48.520Z,1.60
2023-01-07T14:40:33.227Z,1.57
2023-01-07T14:43:03.925Z,1.70
2023-01-07T14:45:37.393Z,1.63
2023-01-07T14:48:10.882Z,2.03
2023-01-07T14:51:28.236Z,2.10
2023-01-07T14:54:31.175Z,2.00
2023-01-07T14:57:21.379Z,1.90
2023-01-07T15:00:40.856Z,1.80
2023-01-07T15:04:04.698Z,1.97
2023-01-07T15:06:41.969Z,2.20
2023-01-07T15:10:05.161Z,2.20
2023-01-07T15:12:56.369Z,1.80
2023-01-07T15:15:56.554Z,2.53
2023-01-07T15:18:24.792Z,2.17
2023-01-07T15:21:35.032Z,2.10
2023-01-07T15:25:03.418Z,2.50
2023-01-07T15:27:43.620Z,2.03
2023-01-07T15:30:58.497Z,1.90
2023-01-07T15:34:16.166Z,3.33
2023-01-07T15:36:52.417Z,2.00
2023-01-07T15:39:45.264Z,2.40
2023-01-07T15:42:26.109Z,2.30
2023-01-07T15:45:00.327Z,2.73
2023-01-07T15:47:43.441Z,2.27
2023-01-07T15:50:36.736Z,2.57
2023-01-07T15:53:13.479Z,2.00
2023-01-07T15:56:08.039Z,2.60
2023-01-07T15:58:50.210Z,1.80
2023-01-07T16:01:23.861Z,1.90
2023-01-07T16:03:57.871Z,2.17
2023-01-07T16:06:31.495Z,2.70
2023-01-07T16:09:05.600Z,2.50
2023-01-07T16:11:33.479Z,2.23
2023-01-07T16:14:13.709Z,2.60
2023-01-07T16:16:42.011Z,2.70
2023-01-07T16:19:21.843Z,2.67
2023-01-07T16:21:59.762Z,2.70
2023-01-07T16:24:27.734Z,2.50
2023-01-07T16:27:05.915Z,2.80
2023-01-07T16:29:52.204Z,2.80
2023-01-07T16:32:24.559Z,2.90
2023-01-07T16:35:21.169Z,2.70
2023-01-07T16:37:50.472Z,2.60
2023-01-07T16:40:33.613Z,3.00
2023-01-07T16:43:02.311Z,3.53
2023-01-07T16:45:36.270Z,2.30
2023-01-07T16:48:21.632Z,2.77
2023-01-07T16:50:50.170Z,2.90
2023-01-07T16:53:35.713Z,3.00
2023-01-07T16:56:18.023Z,3.07
2023-01-07T16:58:58.374Z,3.17
2023-01-07T17:01:35.349Z,2.90
2023-01-07T17:04:18.106Z,3.43
2023-01-07T17:06:46.287Z,3.97
2023-01-07T17:09:39.223Z,3.40
2023-01-07T17:12:07.072Z,3.60
2023-01-07T17:14:51.188Z,3.70
2023-01-07T17:17:36.398Z,3.57
2023-01-07T17:20:12.640Z,3.00
2023-01-07T17:22:42.066Z,7.63
2023-01-07T17:25:28.451Z,3.23
2023-01-07T17:28:08.321Z,2.60
2023-01-07T17:30:37.863Z,3.13
2023-01-07T17:33:05.658Z,3.57
2023-01-07T17:35:33.255Z,3.80
2023-01-07T17:38:00.859Z,2.70
2023-01-07T17:40:28.583Z,3.60
2023-01-07T17:43:15.220Z,2.93
2023-01-07T17:45:42.939Z,2.40
2023-01-07T17:48:15.197Z,3.03
2023-01-07T17:50:43.458Z,3.10
2023-01-07T17:53:30.777Z,2.97
2023-01-07T17:56:01.487Z,2.43
2023-01-07T17:58:33.733Z,2.87
2023-01-07T18:01:10.153Z,2.90
2023-01-07T18:03:38.492Z,2.50
2023-01-07T18:06:24.697Z,2.37
2023-01-07T18:08:53.904Z,2.17
2023-01-07T18:11:46.131Z,3.40
2023-01-07T18:14:16.401Z,2.90
2023-01-07T18:16:44.240Z,2.67
2023-01-07T18:19:15.317Z,2.53
2023-01-07T18:21:43.116Z,2.30
2023-01-07T18:24:22.111Z,3.10
2023-01-07T18:26:49.906Z,2.33
2023-01-07T18:29:17.718Z,2.63
2023-01-07T18:31:46.248Z,2.97
2023-01-07T18:34:16.070Z,2.33
2023-01-07T18:36:46.740Z,2.60
2023-01-07T18:39:20.710Z,2.57
2023-01-07T18:41:50.296Z,2.60
2023-01-07T18:44:21.701Z,2.80
2023-01-07T18:46:49.567Z,2.80
2023-01-07T18:49:17.340Z,3.33
2023-01-07T18:51:48.226Z,3.10
2023-01-07T18:54:16.927Z,3.63
2023-01-07T18:56:45.897Z,3.00
2023-01-07T18:59:14.584Z,2.83
2023-01-07T19:01:42.710Z,3.00
2023-01-07T19:04:10.505Z,3.07
2023-01-07T19:06:38.817Z,3.30
2023-01-07T19:09:06.962Z,3.30
2023-01-07T19:11:34.633Z,2.93
2023-01-07T19:14:02.707Z,3.70
2023-01-07T19:16:30.330Z,3.17
2023-01-07T19:18:58.090Z,2.80
2023-01-07T19:21:26.744Z,2.97
2023-01-07T19:23:55.667Z,2.50
2023-01-07T19:26:23.284Z,2.47
2023-01-07T19:28:51.426Z,3.30
2023-01-07T19:31:19.052Z,2.80
2023-01-07T19:33:46.691Z,2.90
2023-01-07T19:36:17.566Z,2.60
2023-01-07T19:38:49.371Z,2.80
2023-01-07T19:41:21.569Z,3.20
2023-01-07T19:43:53.516Z,2.57
2023-01-07T19:46:21.811Z,2.50
2023-01-07T19:48:49.781Z,3.40
2023-01-07T19:51:17.491Z,3.13
2023-01-07T19:53:47.958Z,3.40
2023-01-07T19:56:15.701Z,2.60
2023-01-07T19:58:43.410Z,2.67
2023-01-07T20:01:18.066Z,2.80
2023-01-07T20:03:46.000Z,2.93
2023-01-07T20:06:20.776Z,3.17
2023-01-07T20:08:51.880Z,3.40
2023-01-07T20:11:19.638Z,3.50
2023-01-07T20:13:49.174Z,3.13
2023-01-07T20:16:24.276Z,3.00
2023-01-07T20:18:55.479Z,3.23
2023-01-07T20:21:26.774Z,3.10
2023-01-07T20:23:55.413Z,3.60
2023-01-07T20:26:31.624Z,3.83
2023-01-07T20:29:01.407Z,3.07
2023-01-07T20:31:31.796Z,3.50
2023-01-07T20:34:00.961Z,3.47
2023-01-07T20:36:32.414Z,3.03
2023-01-07T20:39:06.040Z,3.23
2023-01-07T20:41:35.798Z,3.63
2023-01-07T20:44:08.855Z,3.10
2023-01-07T20:46:39.321Z,3.67
2023-01-07T20:49:08.469Z,3.53
2023-01-07T20:51:36.407Z,3.77
2023-01-07T20:54:04.174Z,3.13
2023-01-07T20:56:32.522Z,3.17
2023-01-07T20:59:02.055Z,3.50
2023-01-07T21:01:30.259Z,3.87
2023-01-07T21:03:58.676Z,4.03
2023-01-07T21:06:26.285Z,4.00
2023-01-07T21:08:53.900Z,4.10
2023-01-07T21:11:24.932Z,4.10
2023-01-07T21:13:56.180Z,3.97
2023-01-07T21:16:27.542Z,3.53
2023-01-07T21:18:56.469Z,3.73
2023-01-07T21:21:25.694Z,3.43
2023-01-07T21:23:55.094Z,3.63
2023-01-07T21:26:23.861Z,3.40
2023-01-07T21:28:56.196Z,3.43
2023-01-07T21:31:26.273Z,3.30
2023-01-07T21:33:58.307Z,3.67
2023-01-07T21:36:28.399Z,3.43
2023-01-07T21:38:59.627Z,3.87
2023-01-07T21:41:28.973Z,3.10
2023-01-07T21:43:57.414Z,3.00
2023-01-07T21:46:25.121Z,4.60
2023-01-07T21:48:52.689Z,3.33
2023-01-07T21:51:28.430Z,3.80
2023-01-07T21:53:58.659Z,4.40
2023-01-07T21:56:32.979Z,3.70
2023-01-07T21:59:01.359Z,3.90
2023-01-07T22:01:29.894Z,3.67
2023-01-07T22:03:59.955Z,3.93
2023-01-07T22:06:37.466Z,3.90
2023-01-07T22:09:13.525Z,4.07
2023-01-07T22:11:42.822Z,4.20
2023-01-07T22:14:19.382Z,3.70
2023-01-07T22:16:49.145Z,3.97
2023-01-07T22:19:16.996Z,3.20
2023-01-07T22:21:44.704Z,2.90
2023-01-07T22:24:12.366Z,3.43
2023-01-07T22:26:41.252Z,3.80
2023-01-07T22:29:09.130Z,2.60
2023-01-07T22:31:38.380Z,3.70
2023-01-07T22:34:08.163Z,3.50
2023-01-07T22:37:11.118Z,3.40
2023-01-07T22:39:57.092Z,4.20
2023-01-07T22:42:58.693Z,3.33
2023-01-07T22:46:16.981Z,2.63
2023-01-07T22:48:45.044Z,2.80
2023-01-07T22:51:26.755Z,3.37
2023-01-07T22:53:59.138Z,3.87
2023-01-07T22:56:28.275Z,3.33
2023-01-07T22:58:55.861Z,3.70
2023-01-07T23:01:23.522Z,3.70
2023-01-07T23:03:51.221Z,3.70
2023-01-07T23:06:19.129Z,3.30
2023-01-07T23:08:47.040Z,3.13
2023-01-07T23:11:34.679Z,2.77
2023-01-07T23:14:05.999Z,2.40
2023-01-07T23:16:39.050Z,2.63
2023-01-07T23:19:07.039Z,2.53
2023-01-07T23:21:34.653Z,2.17
2023-01-07T23:24:02.322Z,2.23
2023-01-07T23:26:29.885Z,2.23
2023-01-07T23:28:57.568Z,2.00
2023-01-07T23:31:25.267Z,2.87
2023-01-07T23:33:53.255Z,2.60
2023-01-07T23:36:20.811Z,2.33
2023-01-07T23:38:48.816Z,2.10
2023-01-07T23:41:16.658Z,2.40
2023-01-07T23:43:44.319Z,1.87
2023-01-07T23:46:12.836Z,1.73
2023-01-07T23:48:41.227Z,1.77
2023-01-07T23:51:18.737Z,2.10
2023-01-07T23:53:47.782Z,1.57
2023-01-07T23:56:20.748Z,1.83
2023-01-07T23:58:49.998Z,1.70
